Spray, North Carolina
Current Conditions -  °F | °C
As of 11:55 AM on Saturday 22 Nov 2014 (Local Time) from KSIF Reporting Station
Clear Clear  
Wind Chill: 40°   Ceiling: Unl
Heat Index: 45°   Visibility: 10mi
Dew Point: 15°   Wind: 10mph
Humidity: 30%   Direction: 220°SW
Pressure: 30.49"   Gusts: NA
Location:  36.5114°N, 79.7844°W
Report Text: KSIF 221655Z AUTO 22009KT 10SM CLR 07/M09 A3049 RMK AO2 T00721093
Loading
Personal Weather Stations






























Interactive Weather Map New forecast layout! Learn more

10-Day Weather Forecast

Advertisements
Track Severe Weather on mobile